Nikos Kolias

Olheiro - Apollon
3 Dez 2028
Domingo
Processo

Personalidade

Adaptabilidade (9) Ambição (1) Controvérsia (10) Lealdade (1) Pressão (17) Profissionalismo (9) Espírito Esportivo (5) Temperamento (11)

Perfil

Estilo de Treinamento Democrático
Licença Continental C
Determinação 4
Gestão de Pessoas 7
Motivação 11
Disciplina 5
Satisfação no Trabalho
100%
Fadiga
0%
Função Olheiro
Salário 51.4K p/s
Contrato 14.03.2030

Desempenho

Comportamento Bom
Eficácia do Treinamento
49%
Desenvolvimento do Jogador
35%
Prevenção de Lesões
40%
Implementação Tática
40%

Eventos Recentes

Participou de uma reunião de recrutamento agora
Recomendou um alvo de transferência agora
Recomendou um alvo de transferência agora
Votou contra um alvo de transferência agora
Recomendou um alvo de transferência agora
Recomendou um alvo de transferência agora
Observou uma partida agora
Observou uma partida agora

Monitorando agora

107
Jogador Clube Status Habilidade Confiança Observado Última observação Último voto
Gideon Manaseh Ikorodu City Ativo 92 / 106 40% 5 02.12.2028 -
Andrija Bulatović Chamois Niortais Ativo 144 / 144 40% 2 02.12.2028 -
Maxim Radchenko Rostov Ativo 93 / 100 40% 1 27.11.2028 -
Joaquín Salas Reading Ativo 104 / 94 40% 1 27.11.2028 -
Joel Ezra Enyimba Ativo 102 / 105 40% 5 25.11.2028 -
Malte Hallin GIF Sundsvall Ativo 97 / 88 40% 1 25.11.2028 -
Jan Cedilnik Chikhura Ativo 90 / 96 40% 2 24.11.2028 -
Alejandro Tapia Central Norte Ativo 74 / 104 40% 3 24.11.2028 -
Noa Mikić Imotski Ativo 114 / 127 40% 1 24.11.2028 -
Tiago Gordillo San Miguel Ativo 96 / 102 40% 4 20.11.2028 -
Olivier Leroux Mouscron Ativo 118 / 113 40% 2 17.11.2028 -
Nejc Brekalo NK Domzale Ativo 111 / 102 40% 1 17.11.2028 -
Jack Shorrock Port Vale Ativo 112 / 124 40% 1 17.11.2028 -
Mauro Matorras Central Norte Ativo 101 / 88 40% 3 15.11.2028 -
Ramiro Villella Inter Ativo 100 / 109 40% 1 15.11.2028 -
Marko Zebić Lucko Ativo 113 / 113 40% 1 15.11.2028 -
Sergio Martínez Real Madrid Ativo 119 / 118 40% 2 14.11.2028 -
Malte Heyde Esbjerg Ativo 127 / 117 40% 1 14.11.2028 -
Martim Cunha Porto Ativo 124 / 128 40% 4 13.11.2028 -
Mateo Caballero Defensor Sporting Ativo 113 / 93 40% 1 13.11.2028 -
Riquelme Thompson-Jones Accrington Stanley Ativo 113 / 122 40% 2 11.11.2028 -
Andrey Ivlev Nizhniy Novgorod Ativo 119 / 121 40% 2 08.11.2028 -
Matías Magdaleno Estudiantes Ativo 107 / 102 40% 1 02.10.2028 -
Yury Oyarzo Racing Ativo 106 / 104 40% 1 08.09.2028 -
Agustín Medina Lanús Ativo 109 / 129 40% 1 08.09.2028 -
Christos Kamtsis Aris Thessaloniki Ativo 91 / 97 40% 1 06.09.2028 -
Aytor Herrera Mineros de Guayana Ativo 79 / 85 40% 2 04.09.2028 -
Óscar Hinojosa Metropolitanos Ativo 87 / 95 40% 1 24.08.2028 -
Francisco Arias Gimnasia y Esgrima Ativo 92 / 94 40% 1 24.08.2028 -
Lautaro Dufur Juventud Ativo 100 / 108 40% 1 24.08.2028 -
Estanislao López Colón Ativo 83 / 96 40% 1 23.08.2028 -
Cheveyo Tsawa Club Brugge Ativo 124 / 121 40% 1 23.08.2028 -
Abubakar Adams Aduana Stars Ativo 80 / 76 40% 4 31.07.2028 -
Khama Mabunda Platinum Stars Ativo 76 / 77 40% 3 31.07.2028 -
Hosea Michael Remo Stars Ativo 101 / 87 40% 2 30.07.2028 -
Federico Matarán Giana Erminio Ativo 97 / 107 40% 1 30.07.2028 -
Diego Vargas Universidad de Concepcion Ativo 88 / 91 40% 1 30.07.2028 -
Kwesi Sorotu Badori Berekum Chelsea Ativo 101 / 116 40% 2 29.07.2028 -
Mehdi Noorafkan Padideh Ativo 85 / 120 40% 1 29.07.2028 -
Duje Slatina Trapani Ativo 89 / 94 40% 1 29.07.2028 -
Miguel Figueiredo Benfica Ativo 113 / 138 40% 1 28.07.2028 -
Seydou Fofana Pacos de Ferreira Ativo 98 / 123 40% 1 28.07.2028 -
Anderson Acevedo Bogota Ativo 76 / 84 40% 1 28.07.2028 -
Simone Suppa Virtus Verona Ativo 98 / 83 40% 1 21.07.2028 -
Jan Bürger Northampton Town Ativo 119 / 122 40% 2 18.07.2028 -
Lucas Camejo River Plate Ativo 88 / 89 40% 1 17.07.2028 -
Bence Szakos Aris Ativo 107 / 94 40% 1 17.07.2028 -
Bernardo Lima Porto Ativo 103 / 132 40% 5 14.07.2028 -
Alexandr Lubnin Zenit Penza Ativo 87 / 87 40% 1 14.07.2028 -
Jamal Iddrissou Pergolettese Ativo 116 / 131 40% 2 12.07.2028 -
Clayton Diandy Al-Diriyah Ativo 104 / 122 40% 3 12.07.2028 -
Valentino Huertas Morón Ativo 110 / 95 40% 1 12.07.2028 -
Ahmed Khaled Paralimni Ativo 101 / 117 40% 4 10.07.2028 -
Lamine Bèye Portimonense Ativo 111 / 116 40% 2 10.07.2028 -
Fletcher Boyd Accrington Stanley Ativo 106 / 102 40% 4 09.07.2028 -
Francesco Ferrara Latina Ativo 92 / 87 40% 2 09.07.2028 -
Ryan Kavuma-McQueen Accrington Stanley Ativo 133 / 122 40% 4 08.07.2028 -
Edison Gruezo Guadalajara Ativo 110 / 108 40% 2 08.07.2028 -
Luke Brooke-Smith Chesterfield Ativo 90 / 120 40% 3 06.07.2028 -
Igor Tyjon Barrow AFC Ativo 114 / 117 40% 5 06.07.2028 -
Paolo Dorini Estudiantes de Merida Ativo 82 / 103 40% 1 06.07.2028 -
Juan Cejas Ethnikos Achnas Rejeitado 111 / 115 65% 2 05.07.2028 Rejeitar
Andrea Luongo Trento Ativo 112 / 101 40% 3 05.07.2028 -
Marco Tumminello Benevento Ativo 111 / 125 40% 1 05.07.2028 -
Tyler Fletcher Rotherham United Ativo 121 / 133 40% 1 05.07.2028 -
Daniel Barrea Godoy Cruz Ativo 115 / 117 40% 1 03.07.2028 -
Kyle Wootton Stockport County Ativo 123 / 136 40% 1 03.07.2028 -
Augusto Bando Ascoli Ativo 111 / 122 40% 1 03.07.2028 -
Emanuele Schimmenti Potenza Ativo 115 / 109 40% 1 01.07.2028 -
Tobiáš Pališčák Zlin Ativo 108 / 105 40% 1 01.07.2028 -
Tobías Ramírez River Plate Ativo 131 / 122 40% 1 01.07.2028 -
Gabriele Gori Ascoli Ativo 121 / 126 40% 1 29.06.2028 -
Leandro Antunes Al-Riyadh Ativo 132 / 120 40% 1 26.06.2028 -
Baba N'Diaye Chaika Ativo 94 / 90 40% 2 07.06.2028 -
Lisandro Piñero Banfield Ativo 125 / 114 40% 1 07.06.2028 -
Tomás Peixoto Porto Ativo 99 / 120 40% 3 06.06.2028 -
Leo Pecover Swindon Town Ativo 105 / 116 40% 3 06.06.2028 -
Paulo Iago Sporting CP Ativo 99 / 107 40% 2 05.06.2028 -
Francisco Fernandes Porto Ativo 99 / 98 40% 2 05.06.2028 -
Georgy Makarov Dinamo St Petersburg Ativo 78 / 97 40% 1 04.06.2028 -
Ryan McAidoo Oldham Athletic Ativo 115 / 119 40% 6 02.06.2028 -
Reece Oxford Shrewsbury Town Ativo 112 / 117 40% 1 31.05.2028 -
Hayden Matthews Tranmere Rovers Ativo 113 / 105 40% 1 31.05.2028 -
Adam Senior Barnet Ativo 101 / 103 40% 1 31.05.2028 -
João Abreu Porto Ativo 95 / 112 40% 5 28.05.2028 -
Gabe Forsyth Colchester United Ativo 102 / 102 40% 3 28.05.2028 -
Matvey Ivanov Zenit Ativo 77 / 86 40% 3 20.05.2028 -
Kwandile Gumemde US Bougouni Ativo 76 / 88 40% 2 19.05.2028 -
Eduard Ihnatov Ospitaletto Ativo 101 / 93 40% 1 18.05.2028 -
İsak Vural Audace Cerignola Ativo 111 / 113 40% 3 07.05.2028 -
Mads Abrahamsen Zenit Penza Ativo 99 / 88 40% 2 07.05.2028 -
Jeremías Merlo Gimnasia La Plata Ativo 122 / 112 40% 1 04.05.2028 -
Gaël Lafont Dolomiti Bellunesi Ativo 98 / 113 40% 2 30.04.2028 -
Nathan Mbala FC Metz Ativo 95 / 105 40% 2 21.04.2028 -
Kiani Inge Groningen Ativo 101 / 113 40% 1 21.04.2028 -
Luca Scarlato Perugia Ativo 107 / 126 40% 2 13.04.2028 -
Jake Evans Crewe Alexandra Ativo 102 / 132 40% 3 07.04.2028 -
Vasco Sousa Porto Ativo 75 / 88 40% 1 07.04.2028 -
Ben Broggio Mansfield Town Ativo 107 / 118 40% 3 05.04.2028 -
Gabriel Mec Feirense Ativo 114 / 138 40% 2 02.04.2028 -
Gabriele Bertolini Vicenza Ativo 94 / 118 40% 1 30.03.2028 -
Lander Astiazarán Real Sociedad Ativo 109 / 113 40% 1 27.03.2028 -
Mamoutou Berthé US Bougouba Ativo 115 / 125 40% 1 19.03.2028 -
Dimitris Theodorou Anorthosis Ativo 100 / 109 65% 1 17.01.2028 Aprovar
Stevan Jovetić Ativo 120 / 116 65% 1 14.06.2027 Aprovar
Andreas Karamanolis Anorthosis Ativo 101 / 111 65% 1 10.08.2026 Aprovar
Fernando Forestieri AEL Ativo 129 / 133 65% 1 03.08.2026 Aprovar